sensor_id;sensor_type;location;lat;lon;timestamp;pressure;altitude;pressure_sealevel;temperature;humidity
62948;BME280;51940;52.126;-0.994;2023-04-19T00:00:31;101531.91;;;7.55;100.00
62948;BME280;51940;52.126;-0.994;2023-04-19T00:02:56;101534.39;;;7.55;100.00
62948;BME280;51940;52.126;-0.994;2023-04-19T00:05:21;101531.55;;;7.53;100.00
62948;BME280;51940;52.126;-0.994;2023-04-19T00:07:49;101528.13;;;7.51;100.00
62948;BME280;51940;52.126;-0.994;2023-04-19T00:10:14;101529.73;;;7.50;100.00
62948;BME280;51940;52.126;-0.994;2023-04-19T00:12:39;101535.59;;;7.51;100.00
62948;BME280;51940;52.126;-0.994;2023-04-19T00:15:05;101529.73;;;7.51;100.00
62948;BME280;51940;52.126;-0.994;2023-04-19T00:17:30;101532.92;;;7.52;100.00
62948;BME280;51940;52.126;-0.994;2023-04-19T00:19:56;101524.77;;;7.51;100.00
62948;BME280;51940;52.126;-0.994;2023-04-19T00:22:21;101529.73;;;7.51;100.00
62948;BME280;51940;52.126;-0.994;2023-04-19T00:24:47;101522.45;;;7.50;100.00
62948;BME280;51940;52.126;-0.994;2023-04-19T00:27:12;101518.90;;;7.49;100.00
62948;BME280;51940;52.126;-0.994;2023-04-19T00:29:37;101518.19;;;7.51;100.00
62948;BME280;51940;52.126;-0.994;2023-04-19T00:32:02;101522.47;;;7.52;100.00
62948;BME280;51940;52.126;-0.994;2023-04-19T00:34:29;101518.23;;;7.55;100.00
62948;BME280;51940;52.126;-0.994;2023-04-19T00:36:55;101519.48;;;7.55;100.00
62948;BME280;51940;52.126;-0.994;2023-04-19T00:39:20;101521.25;;;7.55;100.00
62948;BME280;51940;52.126;-0.994;2023-04-19T00:41:45;101518.05;;;7.54;100.00
62948;BME280;51940;52.126;-0.994;2023-04-19T00:44:11;101515.92;;;7.54;100.00
62948;BME280;51940;52.126;-0.994;2023-04-19T00:46:36;101513.09;;;7.56;100.00
62948;BME280;51940;52.126;-0.994;2023-04-19T00:49:01;101512.20;;;7.57;100.00
62948;BME280;51940;52.126;-0.994;2023-04-19T00:51:27;101511.14;;;7.58;100.00
62948;BME280;51940;52.126;-0.994;2023-04-19T00:53:52;101507.23;;;7.57;100.00
62948;BME280;51940;52.126;-0.994;2023-04-19T00:56:18;101502.27;;;7.57;100.00
62948;BME280;51940;52.126;-0.994;2023-04-19T00:58:45;101503.33;;;7.56;100.00
62948;BME280;51940;52.126;-0.994;2023-04-19T01:01:12;101495.68;;;7.55;100.00
62948;BME280;51940;52.126;-0.994;2023-04-19T01:03:37;101501.72;;;7.55;100.00
62948;BME280;51940;52.126;-0.994;2023-04-19T01:06:02;101504.21;;;7.56;100.00
62948;BME280;51940;52.126;-0.994;2023-04-19T01:08:28;101502.43;;;7.56;100.00
62948;BME280;51940;52.126;-0.994;2023-04-19T01:10:53;101494.27;;;7.55;100.00
62948;BME280;51940;52.126;-0.994;2023-04-19T01:13:18;101496.05;;;7.55;100.00
62948;BME280;51940;52.126;-0.994;2023-04-19T01:15:45;101496.92;;;7.56;100.00
62948;BME280;51940;52.126;-0.994;2023-04-19T01:18:10;101495.34;;;7.57;100.00
62948;BME280;51940;52.126;-0.994;2023-04-19T01:20:35;101490.01;;;7.56;100.00
62948;BME280;51940;52.126;-0.994;2023-04-19T01:23:00;101491.42;;;7.57;100.00
62948;BME280;51940;52.126;-0.994;2023-04-19T01:25:26;101490.19;;;7.57;100.00
62948;BME280;51940;52.126;-0.994;2023-04-19T01:27:51;101490.91;;;7.60;100.00
62948;BME280;51940;52.126;-0.994;2023-04-19T01:30:16;101485.59;;;7.60;100.00
62948;BME280;51940;52.126;-0.994;2023-04-19T01:32:41;101487.36;;;7.60;100.00
62948;BME280;51940;52.126;-0.994;2023-04-19T01:35:07;101479.71;;;7.57;100.00
62948;BME280;51940;52.126;-0.994;2023-04-19T01:37:35;101480.41;;;7.55;100.00
62948;BME280;51940;52.126;-0.994;2023-04-19T01:40:00;101479.71;;;7.56;100.00
62948;BME280;51940;52.126;-0.994;2023-04-19T01:42:25;101474.21;;;7.57;100.00
62948;BME280;51940;52.126;-0.994;2023-04-19T01:44:51;101477.77;;;7.59;100.00
62948;BME280;51940;52.126;-0.994;2023-04-19T01:47:16;101474.42;;;7.61;100.00
62948;BME280;51940;52.126;-0.994;2023-04-19T01:49:41;101477.27;;;7.62;100.00
62948;BME280;51940;52.126;-0.994;2023-04-19T01:52:06;101470.14;;;7.60;100.00
62948;BME280;51940;52.126;-0.994;2023-04-19T01:54:32;101464.66;;;7.61;100.00
62948;BME280;51940;52.126;-0.994;2023-04-19T01:56:57;101468.55;;;7.61;100.00
62948;BME280;51940;52.126;-0.994;2023-04-19T01:59:22;101462.33;;;7.60;100.00
62948;BME280;51940;52.126;-0.994;2023-04-19T02:01:48;101463.56;;;7.58;100.00
62948;BME280;51940;52.126;-0.994;2023-04-19T02:04:13;101462.67;;;7.58;100.00
62948;BME280;51940;52.126;-0.994;2023-04-19T02:06:38;101459.48;;;7.57;100.00
62948;BME280;51940;52.126;-0.994;2023-04-19T02:09:03;101451.48;;;7.57;100.00
62948;BME280;51940;52.126;-0.994;2023-04-19T02:11:29;101453.08;;;7.57;100.00
62948;BME280;51940;52.126;-0.994;2023-04-19T02:13:54;101452.02;;;7.56;100.00
62948;BME280;51940;52.126;-0.994;2023-04-19T02:16:19;101445.80;;;7.54;100.00
62948;BME280;51940;52.126;-0.994;2023-04-19T02:18:45;101450.77;;;7.54;100.00
62948;BME280;51940;52.126;-0.994;2023-04-19T02:21:11;101452.73;;;7.54;100.00
62948;BME280;51940;52.126;-0.994;2023-04-19T02:23:36;101447.89;;;7.52;100.00
62948;BME280;51940;52.126;-0.994;2023-04-19T02:26:01;101450.20;;;7.50;100.00
62948;BME280;51940;52.126;-0.994;2023-04-19T02:28:28;101450.38;;;7.47;100.00
62948;BME280;51940;52.126;-0.994;2023-04-19T02:30:54;101445.75;;;7.44;100.00
62948;BME280;51940;52.126;-0.994;2023-04-19T02:33:20;101441.64;;;7.42;100.00
62948;BME280;51940;52.126;-0.994;2023-04-19T02:35:46;101445.35;;;7.39;100.00
62948;BME280;51940;52.126;-0.994;2023-04-19T02:38:11;101444.82;;;7.37;100.00
62948;BME280;51940;52.126;-0.994;2023-04-19T02:40:36;101445.52;;;7.37;100.00
62948;BME280;51940;52.126;-0.994;2023-04-19T02:43:02;101441.08;;;7.35;100.00
62948;BME280;51940;52.126;-0.994;2023-04-19T02:45:28;101444.27;;;7.35;100.00
62948;BME280;51940;52.126;-0.994;2023-04-19T02:47:53;101444.42;;;7.34;100.00
62948;BME280;51940;52.126;-0.994;2023-04-19T02:50:19;101442.65;;;7.31;100.00
62948;BME280;51940;52.126;-0.994;2023-04-19T02:52:44;101437.49;;;7.29;100.00
62948;BME280;51940;52.126;-0.994;2023-04-19T02:55:10;101435.50;;;7.25;100.00
62948;BME280;51940;52.126;-0.994;2023-04-19T02:57:35;101437.63;;;7.22;100.00
62948;BME280;51940;52.126;-0.994;2023-04-19T03:00:00;101434.06;;;7.19;100.00
62948;BME280;51940;52.126;-0.994;2023-04-19T03:02:25;101437.20;;;7.15;100.00
62948;BME280;51940;52.126;-0.994;2023-04-19T03:04:51;101436.85;;;7.11;100.00
62948;BME280;51940;52.126;-0.994;2023-04-19T03:07:17;101431.66;;;7.07;100.00
62948;BME280;51940;52.126;-0.994;2023-04-19T03:09:42;101435.73;;;7.05;100.00
62948;BME280;51940;52.126;-0.994;2023-04-19T03:12:07;101435.02;;;7.03;100.00
62948;BME280;51940;52.126;-0.994;2023-04-19T03:14:32;101436.79;;;7.03;100.00
62948;BME280;51940;52.126;-0.994;2023-04-19T03:16:58;101435.70;;;7.01;100.00
62948;BME280;51940;52.126;-0.994;2023-04-19T03:19:24;101438.15;;;6.97;100.00
62948;BME280;51940;52.126;-0.994;2023-04-19T03:21:49;101439.55;;;6.93;100.00
62948;BME280;51940;52.126;-0.994;2023-04-19T03:24:15;101441.11;;;6.90;100.00
62948;BME280;51940;52.126;-0.994;2023-04-19T03:26:40;101444.48;;;6.88;100.00
62948;BME280;51940;52.126;-0.994;2023-04-19T03:29:07;101443.21;;;6.85;100.00
62948;BME280;51940;52.126;-0.994;2023-04-19T03:31:32;101443.02;;;6.83;100.00
62948;BME280;51940;52.126;-0.994;2023-04-19T03:33:57;101437.33;;;6.83;100.00
62948;BME280;51940;52.126;-0.994;2023-04-19T03:36:22;101436.62;;;6.83;100.00
62948;BME280;51940;52.126;-0.994;2023-04-19T03:38:48;101439.29;;;6.83;100.00
62948;BME280;51940;52.126;-0.994;2023-04-19T03:41:20;101440.71;;;6.83;100.00
62948;BME280;51940;52.126;-0.994;2023-04-19T03:43:46;101442.46;;;6.81;100.00
62948;BME280;51940;52.126;-0.994;2023-04-19T03:46:11;101442.27;;;6.77;100.00
62948;BME280;51940;52.126;-0.994;2023-04-19T03:48:37;101441.87;;;6.74;100.00
62948;BME280;51940;52.126;-0.994;2023-04-19T03:51:02;101434.41;;;6.72;100.00
62948;BME280;51940;52.126;-0.994;2023-04-19T03:53:27;101436.90;;;6.71;100.00
62948;BME280;51940;52.126;-0.994;2023-04-19T03:55:53;101436.00;;;6.71;100.00
62948;BME280;51940;52.126;-0.994;2023-04-19T03:58:18;101437.23;;;6.70;100.00
62948;BME280;51940;52.126;-0.994;2023-04-19T04:00:43;101438.48;;;6.69;100.00
62948;BME280;51940;52.126;-0.994;2023-04-19T04:03:08;101437.77;;;6.70;100.00
62948;BME280;51940;52.126;-0.994;2023-04-19T04:05:34;101437.24;;;6.73;100.00
62948;BME280;51940;52.126;-0.994;2023-04-19T04:08:02;101437.44;;;6.74;100.00
62948;BME280;51940;52.126;-0.994;2023-04-19T04:10:27;101435.48;;;6.73;100.00
62948;BME280;51940;52.126;-0.994;2023-04-19T04:12:53;101438.32;;;6.73;100.00
62948;BME280;51940;52.126;-0.994;2023-04-19T04:15:18;101437.79;;;6.72;100.00
62948;BME280;51940;52.126;-0.994;2023-04-19T04:17:43;101432.80;;;6.69;100.00
62948;BME280;51940;52.126;-0.994;2023-04-19T04:20:08;101436.52;;;6.70;100.00
62948;BME280;51940;52.126;-0.994;2023-04-19T04:22:38;101433.34;;;6.70;100.00
62948;BME280;51940;52.126;-0.994;2023-04-19T04:25:04;101438.65;;;6.69;100.00
62948;BME280;51940;52.126;-0.994;2023-04-19T04:27:29;101432.23;;;6.65;100.00
62948;BME280;51940;52.126;-0.994;2023-04-19T04:29:55;101433.27;;;6.64;100.00
62948;BME280;51940;52.126;-0.994;2023-04-19T04:32:22;101431.85;;;6.63;100.00
62948;BME280;51940;52.126;-0.994;2023-04-19T04:34:47;101430.96;;;6.62;100.00
62948;BME280;51940;52.126;-0.994;2023-04-19T04:37:13;101425.80;;;6.59;100.00
62948;BME280;51940;52.126;-0.994;2023-04-19T04:39:38;101430.19;;;6.56;100.00
62948;BME280;51940;52.126;-0.994;2023-04-19T04:42:04;101431.59;;;6.52;100.00
62948;BME280;51940;52.126;-0.994;2023-04-19T04:44:33;101430.12;;;6.48;100.00
62948;BME280;51940;52.126;-0.994;2023-04-19T04:46:59;101437.55;;;6.46;100.00
62948;BME280;51940;52.126;-0.994;2023-04-19T04:49:24;101434.00;;;6.45;100.00
62948;BME280;51940;52.126;-0.994;2023-04-19T04:51:50;101440.55;;;6.43;100.00
62948;BME280;51940;52.126;-0.994;2023-04-19T04:54:15;101435.93;;;6.42;100.00
62948;BME280;51940;52.126;-0.994;2023-04-19T04:56:41;101436.63;;;6.42;100.00
62948;BME280;51940;52.126;-0.994;2023-04-19T04:59:06;101432.91;;;6.42;100.00
62948;BME280;51940;52.126;-0.994;2023-04-19T05:01:32;101437.70;;;6.42;100.00
62948;BME280;51940;52.126;-0.994;2023-04-19T05:03:57;101439.83;;;6.42;100.00
62948;BME280;51940;52.126;-0.994;2023-04-19T05:06:22;101441.77;;;6.42;100.00
62948;BME280;51940;52.126;-0.994;2023-04-19T05:08:48;101438.91;;;6.41;100.00
62948;BME280;51940;52.126;-0.994;2023-04-19T05:11:13;101442.66;;;6.42;100.00
62948;BME280;51940;52.126;-0.994;2023-04-19T05:13:38;101440.73;;;6.44;100.00
62948;BME280;51940;52.126;-0.994;2023-04-19T05:16:04;101437.73;;;6.45;100.00
62948;BME280;51940;52.126;-0.994;2023-04-19T05:18:29;101441.63;;;6.47;100.00
62948;BME280;51940;52.126;-0.994;2023-04-19T05:20:55;101439.38;;;6.50;100.00
62948;BME280;51940;52.126;-0.994;2023-04-19T05:23:20;101437.25;;;6.52;100.00
62948;BME280;51940;52.126;-0.994;2023-04-19T05:25:46;101433.35;;;6.51;100.00
62948;BME280;51940;52.126;-0.994;2023-04-19T05:28:11;101433.88;;;6.51;100.00
62948;BME280;51940;52.126;-0.994;2023-04-19T05:30:37;101427.34;;;6.55;100.00
62948;BME280;51940;52.126;-0.994;2023-04-19T05:33:03;101431.66;;;6.60;100.00
62948;BME280;51940;52.126;-0.994;2023-04-19T05:35:28;101430.15;;;6.71;100.00
62948;BME280;51940;52.126;-0.994;2023-04-19T05:37:53;101429.56;;;6.87;100.00
62948;BME280;51940;52.126;-0.994;2023-04-19T05:40:19;101433.73;;;6.97;100.00
62948;BME280;51940;52.126;-0.994;2023-04-19T05:42:45;101437.63;;;6.97;100.00
62948;BME280;51940;52.126;-0.994;2023-04-19T05:45:10;101444.33;;;6.92;100.00
62948;BME280;51940;52.126;-0.994;2023-04-19T05:47:35;101447.66;;;6.88;100.00
62948;BME280;51940;52.126;-0.994;2023-04-19T05:50:01;101448.17;;;6.85;100.00
62948;BME280;51940;52.126;-0.994;2023-04-19T05:52:27;101450.09;;;6.82;100.00
62948;BME280;51940;52.126;-0.994;2023-04-19T05:54:52;101449.36;;;6.77;100.00
62948;BME280;51940;52.126;-0.994;2023-04-19T05:57:18;101452.89;;;6.75;100.00
62948;BME280;51940;52.126;-0.994;2023-04-19T05:59:44;101453.39;;;6.72;100.00
62948;BME280;51940;52.126;-0.994;2023-04-19T06:02:09;101454.80;;;6.72;100.00
62948;BME280;51940;52.126;-0.994;2023-04-19T06:04:34;101460.48;;;6.72;100.00
62948;BME280;51940;52.126;-0.994;2023-04-19T06:07:00;101460.88;;;6.76;100.00
62948;BME280;51940;52.126;-0.994;2023-04-19T06:09:25;101460.70;;;6.76;100.00
62948;BME280;51940;52.126;-0.994;2023-04-19T06:11:51;101458.39;;;6.77;100.00
62948;BME280;51940;52.126;-0.994;2023-04-19T06:14:19;101457.88;;;6.80;100.00
62948;BME280;51940;52.126;-0.994;2023-04-19T06:16:44;101455.80;;;6.85;100.00
62948;BME280;51940;52.126;-0.994;2023-04-19T06:19:09;101454.27;;;6.94;100.00
62948;BME280;51940;52.126;-0.994;2023-04-19T06:21:35;101456.30;;;7.04;100.00
62948;BME280;51940;52.126;-0.994;2023-04-19T06:24:00;101459.91;;;7.11;100.00
62948;BME280;51940;52.126;-0.994;2023-04-19T06:26:26;101458.67;;;7.12;100.00
62948;BME280;51940;52.126;-0.994;2023-04-19T06:28:51;101457.98;;;7.18;100.00
62948;BME280;51940;52.126;-0.994;2023-04-19T06:31:16;101454.73;;;7.34;100.00
62948;BME280;51940;52.126;-0.994;2023-04-19T06:33:42;101460.14;;;7.48;100.00
62948;BME280;51940;52.126;-0.994;2023-04-19T06:36:08;101461.25;;;7.55;100.00
62948;BME280;51940;52.126;-0.994;2023-04-19T06:38:34;101461.95;;;7.55;100.00
62948;BME280;51940;52.126;-0.994;2023-04-19T06:41:00;101464.45;;;7.59;100.00
62948;BME280;51940;52.126;-0.994;2023-04-19T06:43:25;101459.70;;;7.67;100.00
62948;BME280;51940;52.126;-0.994;2023-04-19T06:45:58;101461.52;;;7.76;100.00
62948;BME280;51940;52.126;-0.994;2023-04-19T06:48:23;101460.85;;;7.86;100.00
62948;BME280;51940;52.126;-0.994;2023-04-19T06:50:50;101467.30;;;7.96;100.00
62948;BME280;51940;52.126;-0.994;2023-04-19T06:53:15;101468.70;;;7.95;100.00
62948;BME280;51940;52.126;-0.994;2023-04-19T06:55:40;101471.38;;;7.94;100.00
62948;BME280;51940;52.126;-0.994;2023-04-19T06:58:06;101474.05;;;7.98;100.00
62948;BME280;51940;52.126;-0.994;2023-04-19T07:00:34;101473.19;;;8.07;100.00
62948;BME280;51940;52.126;-0.994;2023-04-19T07:03:00;101475.17;;;8.11;100.00
62948;BME280;51940;52.126;-0.994;2023-04-19T07:05:25;101475.54;;;8.15;100.00
62948;BME280;51940;52.126;-0.994;2023-04-19T07:07:51;101478.39;;;8.20;100.00
62948;BME280;51940;52.126;-0.994;2023-04-19T07:10:16;101478.05;;;8.25;100.00
62948;BME280;51940;52.126;-0.994;2023-04-19T07:12:41;101483.94;;;8.29;100.00
62948;BME280;51940;52.126;-0.994;2023-04-19T07:15:07;101488.54;;;8.28;100.00
62948;BME280;51940;52.126;-0.994;2023-04-19T07:17:34;101487.11;;;8.26;100.00
62948;BME280;51940;52.126;-0.994;2023-04-19T07:20:00;101486.41;;;8.26;100.00
62948;BME280;51940;52.126;-0.994;2023-04-19T07:22:25;101483.91;;;8.28;100.00
62948;BME280;51940;52.126;-0.994;2023-04-19T07:24:50;101488.35;;;8.28;100.00
62948;BME280;51940;52.126;-0.994;2023-04-19T07:27:16;101485.20;;;8.33;100.00
62948;BME280;51940;52.126;-0.994;2023-04-19T07:29:42;101484.00;;;8.43;100.00
62948;BME280;51940;52.126;-0.994;2023-04-19T07:32:08;101480.99;;;8.59;100.00
62948;BME280;51940;52.126;-0.994;2023-04-19T07:34:39;101479.23;;;8.67;100.00
62948;BME280;51940;52.126;-0.994;2023-04-19T07:37:05;101479.95;;;8.76;100.00
62948;BME280;51940;52.126;-0.994;2023-04-19T07:39:31;101481.02;;;8.82;100.00
62948;BME280;51940;52.126;-0.994;2023-04-19T07:41:56;101480.86;;;8.82;100.00
62948;BME280;51940;52.126;-0.994;2023-04-19T07:44:22;101484.23;;;8.84;100.00
62948;BME280;51940;52.126;-0.994;2023-04-19T07:46:47;101481.39;;;8.84;100.00
62948;BME280;51940;52.126;-0.994;2023-04-19T07:49:13;101488.14;;;8.91;100.00
62948;BME280;51940;52.126;-0.994;2023-04-19T07:51:38;101490.45;;;8.99;100.00
62948;BME280;51940;52.126;-0.994;2023-04-19T07:54:03;101491.17;;;9.10;100.00
62948;BME280;51940;52.126;-0.994;2023-04-19T07:56:29;101491.52;;;9.20;100.00
62948;BME280;51940;52.126;-0.994;2023-04-19T07:58:54;101490.61;;;9.29;100.00
62948;BME280;51940;52.126;-0.994;2023-04-19T08:01:19;101492.05;;;9.35;100.00
62948;BME280;51940;52.126;-0.994;2023-04-19T08:03:45;101489.17;;;9.37;100.00
62948;BME280;51940;52.126;-0.994;2023-04-19T08:06:11;101489.00;;;9.40;100.00
62948;BME280;51940;52.126;-0.994;2023-04-19T08:08:36;101489.90;;;9.41;100.00
62948;BME280;51940;52.126;-0.994;2023-04-19T08:11:03;101492.20;;;9.46;100.00
62948;BME280;51940;52.126;-0.994;2023-04-19T08:13:28;101493.26;;;9.51;100.00
62948;BME280;51940;52.126;-0.994;2023-04-19T08:15:53;101493.23;;;9.56;100.00
62948;BME280;51940;52.126;-0.994;2023-04-19T08:18:19;101494.29;;;9.64;100.00
62948;BME280;51940;52.126;-0.994;2023-04-19T08:20:45;101496.07;;;9.66;100.00
62948;BME280;51940;52.126;-0.994;2023-04-19T08:23:10;101501.04;;;9.71;100.00
62948;BME280;51940;52.126;-0.994;2023-04-19T08:25:37;101497.11;;;9.71;100.00
62948;BME280;51940;52.126;-0.994;2023-04-19T08:28:07;101498.22;;;9.67;100.00
62948;BME280;51940;52.126;-0.994;2023-04-19T08:30:33;101502.31;;;9.63;100.00
62948;BME280;51940;52.126;-0.994;2023-04-19T08:33:01;101503.02;;;9.61;100.00
62948;BME280;51940;52.126;-0.994;2023-04-19T08:35:27;101506.23;;;9.61;100.00
62948;BME280;51940;52.126;-0.994;2023-04-19T08:37:52;101502.67;;;9.60;100.00
62948;BME280;51940;52.126;-0.994;2023-04-19T08:40:41;101501.09;;;9.59;100.00
62948;BME280;51940;52.126;-0.994;2023-04-19T08:46:43;101502.64;;;9.72;100.00
62948;BME280;51940;52.126;-0.994;2023-04-19T08:52:15;101509.06;;;9.71;100.00
62948;BME280;51940;52.126;-0.994;2023-04-19T08:54:50;101509.43;;;9.67;100.00
62948;BME280;51940;52.126;-0.994;2023-04-19T08:57:26;101506.75;;;9.64;100.00
62948;BME280;51940;52.126;-0.994;2023-04-19T09:05:57;101500.89;;;9.66;100.00
62948;BME280;51940;52.126;-0.994;2023-04-19T09:08:29;101503.18;;;9.70;100.00
62948;BME280;51940;52.126;-0.994;2023-04-19T09:14:18;101503.51;;;9.79;100.00
62948;BME280;51940;52.126;-0.994;2023-04-19T09:16:47;101503.33;;;9.85;100.00
62948;BME280;51940;52.126;-0.994;2023-04-19T09:19:21;101500.27;;;9.91;100.00
62948;BME280;51940;52.126;-0.994;2023-04-19T09:28:19;101495.21;;;10.07;100.00
62948;BME280;51940;52.126;-0.994;2023-04-19T09:30:57;101489.64;;;10.19;100.00
62948;BME280;51940;52.126;-0.994;2023-04-19T09:33:33;101482.80;;;10.35;100.00
62948;BME280;51940;52.126;-0.994;2023-04-19T09:36:26;101486.67;;;10.45;100.00
62948;BME280;51940;52.126;-0.994;2023-04-19T09:51:23;101478.23;;;10.99;100.00
62948;BME280;51940;52.126;-0.994;2023-04-19T09:54:04;101479.25;;;11.08;100.00
62948;BME280;51940;52.126;-0.994;2023-04-19T09:56:30;101478.43;;;11.17;100.00
62948;BME280;51940;52.126;-0.994;2023-04-19T09:58:55;101476.27;;;11.21;100.00
62948;BME280;51940;52.126;-0.994;2023-04-19T10:01:20;101477.33;;;11.22;100.00
62948;BME280;51940;52.126;-0.994;2023-04-19T10:03:48;101475.36;;;11.22;100.00
62948;BME280;51940;52.126;-0.994;2023-04-19T10:06:15;101474.24;;;11.27;100.00
62948;BME280;51940;52.126;-0.994;2023-04-19T10:08:41;101468.14;;;11.31;100.00
62948;BME280;51940;52.126;-0.994;2023-04-19T10:11:08;101469.12;;;11.40;100.00
62948;BME280;51940;52.126;-0.994;2023-04-19T10:13:34;101465.96;;;11.51;100.00
62948;BME280;51940;52.126;-0.994;2023-04-19T10:16:01;101462.55;;;11.69;100.00
62948;BME280;51940;52.126;-0.994;2023-04-19T10:18:27;101459.52;;;11.85;100.00
62948;BME280;51940;52.126;-0.994;2023-04-19T10:20:54;101461.84;;;12.00;100.00
62948;BME280;51940;52.126;-0.994;2023-04-19T10:23:21;101460.23;;;12.14;100.00
62948;BME280;51940;52.126;-0.994;2023-04-19T10:25:46;101451.11;;;12.27;100.00
62948;BME280;51940;52.126;-0.994;2023-04-19T10:28:12;101453.02;;;12.42;100.00
62948;BME280;51940;52.126;-0.994;2023-04-19T10:30:50;101450.35;;;12.55;100.00
62948;BME280;51940;52.126;-0.994;2023-04-19T10:33:23;101452.64;;;12.69;100.00
62948;BME280;51940;52.126;-0.994;2023-04-19T10:35:48;101452.05;;;12.83;100.00
62948;BME280;51940;52.126;-0.994;2023-04-19T10:38:14;101451.21;;;12.90;100.00
62948;BME280;51940;52.126;-0.994;2023-04-19T10:43:34;101452.81;;;12.91;100.00
62948;BME280;51940;52.126;-0.994;2023-04-19T10:46:01;101451.75;;;12.89;100.00
62948;BME280;51940;52.126;-0.994;2023-04-19T10:48:30;101450.42;;;12.83;100.00
62948;BME280;51940;52.126;-0.994;2023-04-19T10:51:13;101451.04;;;12.78;100.00
62948;BME280;51940;52.126;-0.994;2023-04-19T10:53:52;101448.42;;;12.75;100.00
62948;BME280;51940;52.126;-0.994;2023-04-19T11:01:31;101444.01;;;12.82;100.00
62948;BME280;51940;52.126;-0.994;2023-04-19T11:03:58;101439.14;;;12.95;100.00
62948;BME280;51940;52.126;-0.994;2023-04-19T11:06:23;101434.08;;;13.07;100.00
62948;BME280;51940;52.126;-0.994;2023-04-19T11:08:51;101435.12;;;13.20;100.00
62948;BME280;51940;52.126;-0.994;2023-04-19T11:11:16;101439.06;;;13.30;100.00
62948;BME280;51940;52.126;-0.994;2023-04-19T11:13:42;101440.15;;;13.30;100.00
62948;BME280;51940;52.126;-0.994;2023-04-19T11:16:07;101441.78;;;13.29;100.00
62948;BME280;51940;52.126;-0.994;2023-04-19T11:18:33;101433.23;;;13.27;100.00
62948;BME280;51940;52.126;-0.994;2023-04-19T11:20:58;101435.95;;;13.24;100.00
62948;BME280;51940;52.126;-0.994;2023-04-19T11:23:25;101430.05;;;13.24;100.00
62948;BME280;51940;52.126;-0.994;2023-04-19T11:25:50;101441.16;;;13.24;100.00
62948;BME280;51940;52.126;-0.994;2023-04-19T11:28:17;101436.41;;;13.18;100.00
62948;BME280;51940;52.126;-0.994;2023-04-19T11:30:42;101432.51;;;13.14;100.00
62948;BME280;51940;52.126;-0.994;2023-04-19T11:33:07;101432.86;;;13.15;100.00
62948;BME280;51940;52.126;-0.994;2023-04-19T11:35:36;101432.12;;;13.17;100.00
62948;BME280;51940;52.126;-0.994;2023-04-19T11:38:01;101434.22;;;13.10;100.00
62948;BME280;51940;52.126;-0.994;2023-04-19T11:40:26;101424.50;;;13.02;100.00
62948;BME280;51940;52.126;-0.994;2023-04-19T11:42:55;101429.86;;;13.03;100.00
62948;BME280;51940;52.126;-0.994;2023-04-19T11:45:27;101425.29;;;12.97;100.00
62948;BME280;51940;52.126;-0.994;2023-04-19T11:47:53;101422.60;;;12.98;100.00
62948;BME280;51940;52.126;-0.994;2023-04-19T11:52:54;101427.16;;;13.03;100.00
62948;BME280;51940;52.126;-0.994;2023-04-19T11:55:20;101422.48;;;12.94;100.00
62948;BME280;51940;52.126;-0.994;2023-04-19T11:57:45;101417.73;;;12.89;100.00
62948;BME280;51940;52.126;-0.994;2023-04-19T12:00:12;101417.73;;;12.90;100.00
62948;BME280;51940;52.126;-0.994;2023-04-19T12:02:38;101411.27;;;12.91;100.00
62948;BME280;51940;52.126;-0.994;2023-04-19T12:05:10;101410.02;;;13.01;100.00
62948;BME280;51940;52.126;-0.994;2023-04-19T12:07:36;101410.27;;;13.17;100.00
62948;BME280;51940;52.126;-0.994;2023-04-19T12:10:08;101407.25;;;13.26;100.00
62948;BME280;51940;52.126;-0.994;2023-04-19T12:12:34;101407.23;;;13.28;100.00
62948;BME280;51940;52.126;-0.994;2023-04-19T12:15:00;101411.23;;;13.24;100.00
62948;BME280;51940;52.126;-0.994;2023-04-19T12:17:25;101411.94;;;13.25;100.00
62948;BME280;51940;52.126;-0.994;2023-04-19T12:19:50;101413.63;;;13.20;100.00
62948;BME280;51940;52.126;-0.994;2023-04-19T12:22:17;101416.19;;;13.16;100.00
62948;BME280;51940;52.126;-0.994;2023-04-19T12:24:44;101414.52;;;13.10;100.00
62948;BME280;51940;52.126;-0.994;2023-04-19T12:27:10;101414.17;;;13.09;100.00
62948;BME280;51940;52.126;-0.994;2023-04-19T12:29:36;101407.11;;;13.12;100.00
62948;BME280;51940;52.126;-0.994;2023-04-19T12:32:02;101411.90;;;13.15;100.00
62948;BME280;51940;52.126;-0.994;2023-04-19T12:34:27;101408.81;;;13.08;100.00
62948;BME280;51940;52.126;-0.994;2023-04-19T12:36:53;101409.09;;;13.03;100.00
62948;BME280;51940;52.126;-0.994;2023-04-19T12:39:18;101410.47;;;12.94;100.00
62948;BME280;51940;52.126;-0.994;2023-04-19T12:41:43;101406.59;;;12.82;100.00
62948;BME280;51940;52.126;-0.994;2023-04-19T12:44:09;101407.41;;;12.76;100.00
62948;BME280;51940;52.126;-0.994;2023-04-19T12:46:35;101409.75;;;12.75;100.00
62948;BME280;51940;52.126;-0.994;2023-04-19T12:49:00;101406.29;;;12.68;100.00
62948;BME280;51940;52.126;-0.994;2023-04-19T12:51:26;101406.35;;;12.65;100.00
62948;BME280;51940;52.126;-0.994;2023-04-19T12:53:51;101401.33;;;12.65;100.00
62948;BME280;51940;52.126;-0.994;2023-04-19T12:56:17;101405.71;;;12.70;100.00
62948;BME280;51940;52.126;-0.994;2023-04-19T12:58:42;101402.26;;;12.73;100.00
62948;BME280;51940;52.126;-0.994;2023-04-19T13:01:08;101398.21;;;12.79;100.00
62948;BME280;51940;52.126;-0.994;2023-04-19T13:03:33;101405.66;;;12.84;100.00
62948;BME280;51940;52.126;-0.994;2023-04-19T13:06:00;101402.44;;;12.84;100.00
62948;BME280;51940;52.126;-0.994;2023-04-19T13:08:26;101401.66;;;12.87;100.00
62948;BME280;51940;52.126;-0.994;2023-04-19T13:10:51;101397.09;;;12.93;100.00
62948;BME280;51940;52.126;-0.994;2023-04-19T13:13:17;101389.55;;;13.04;100.00
62948;BME280;51940;52.126;-0.994;2023-04-19T13:15:42;101393.38;;;13.21;100.00
62948;BME280;51940;52.126;-0.994;2023-04-19T13:18:08;101384.80;;;13.30;100.00